sensor_id;sensor_type;location;lat;lon;timestamp;temperature;humidity
12446;DHT22;6287;50.984;7.022;2023-02-10T00:01:11;2.30;99.90
12446;DHT22;6287;50.984;7.022;2023-02-10T00:03:38;2.40;99.90
12446;DHT22;6287;50.984;7.022;2023-02-10T00:06:07;2.40;99.90
12446;DHT22;6287;50.984;7.022;2023-02-10T00:08:35;2.40;99.90
12446;DHT22;6287;50.984;7.022;2023-02-10T00:11:06;2.40;99.90
12446;DHT22;6287;50.984;7.022;2023-02-10T00:13:36;2.50;99.90
12446;DHT22;6287;50.984;7.022;2023-02-10T00:16:07;2.50;99.90
12446;DHT22;6287;50.984;7.022;2023-02-10T00:18:33;2.50;99.90
12446;DHT22;6287;50.984;7.022;2023-02-10T00:21:16;2.50;99.90
12446;DHT22;6287;50.984;7.022;2023-02-10T00:23:44;2.50;99.90
12446;DHT22;6287;50.984;7.022;2023-02-10T00:26:12;2.40;99.90
12446;DHT22;6287;50.984;7.022;2023-02-10T00:28:40;2.40;99.90
12446;DHT22;6287;50.984;7.022;2023-02-10T00:31:10;2.40;99.90
12446;DHT22;6287;50.984;7.022;2023-02-10T00:33:37;2.40;99.90
12446;DHT22;6287;50.984;7.022;2023-02-10T00:36:06;2.40;99.90
12446;DHT22;6287;50.984;7.022;2023-02-10T00:41:06;2.40;99.90
12446;DHT22;6287;50.984;7.022;2023-02-10T00:43:35;2.40;99.90
12446;DHT22;6287;50.984;7.022;2023-02-10T00:46:04;2.40;99.90
12446;DHT22;6287;50.984;7.022;2023-02-10T00:48:31;2.40;99.90
12446;DHT22;6287;50.984;7.022;2023-02-10T00:51:02;2.40;99.90
12446;DHT22;6287;50.984;7.022;2023-02-10T00:53:30;2.40;99.90
12446;DHT22;6287;50.984;7.022;2023-02-10T00:55:58;2.40;99.90
12446;DHT22;6287;50.984;7.022;2023-02-10T00:58:25;2.40;99.90
12446;DHT22;6287;50.984;7.022;2023-02-10T01:00:53;2.40;99.90
12446;DHT22;6287;50.984;7.022;2023-02-10T01:03:19;2.40;99.90
12446;DHT22;6287;50.984;7.022;2023-02-10T01:05:47;2.40;99.90
12446;DHT22;6287;50.984;7.022;2023-02-10T01:08:16;2.40;99.90
12446;DHT22;6287;50.984;7.022;2023-02-10T01:10:46;2.40;99.90
12446;DHT22;6287;50.984;7.022;2023-02-10T01:13:15;2.40;99.90
12446;DHT22;6287;50.984;7.022;2023-02-10T01:15:49;4.70;99.90
12446;DHT22;6287;50.984;7.022;2023-02-10T01:18:16;2.40;99.90
12446;DHT22;6287;50.984;7.022;2023-02-10T01:20:47;2.30;99.90
12446;DHT22;6287;50.984;7.022;2023-02-10T01:23:14;2.40;99.90
12446;DHT22;6287;50.984;7.022;2023-02-10T01:25:45;2.30;99.90
12446;DHT22;6287;50.984;7.022;2023-02-10T01:28:12;2.40;99.90
12446;DHT22;6287;50.984;7.022;2023-02-10T01:30:38;2.40;99.90
12446;DHT22;6287;50.984;7.022;2023-02-10T01:33:06;2.40;99.90
12446;DHT22;6287;50.984;7.022;2023-02-10T01:35:31;2.40;99.90
12446;DHT22;6287;50.984;7.022;2023-02-10T01:38:01;2.40;99.90
12446;DHT22;6287;50.984;7.022;2023-02-10T01:40:27;2.40;99.90
12446;DHT22;6287;50.984;7.022;2023-02-10T01:42:53;2.40;99.90
12446;DHT22;6287;50.984;7.022;2023-02-10T01:45:32;2.40;99.90
12446;DHT22;6287;50.984;7.022;2023-02-10T01:48:03;2.40;99.90
12446;DHT22;6287;50.984;7.022;2023-02-10T01:50:35;2.30;99.90
12446;DHT22;6287;50.984;7.022;2023-02-10T01:53:04;2.30;99.90
12446;DHT22;6287;50.984;7.022;2023-02-10T01:55:35;2.30;99.90
12446;DHT22;6287;50.984;7.022;2023-02-10T01:58:07;2.30;99.90
12446;DHT22;6287;50.984;7.022;2023-02-10T02:00:39;2.40;99.90
12446;DHT22;6287;50.984;7.022;2023-02-10T02:03:09;2.40;99.90
12446;DHT22;6287;50.984;7.022;2023-02-10T02:05:39;2.40;99.90
12446;DHT22;6287;50.984;7.022;2023-02-10T02:08:16;2.40;99.90
12446;DHT22;6287;50.984;7.022;2023-02-10T02:11:13;2.40;99.90
12446;DHT22;6287;50.984;7.022;2023-02-10T02:13:59;2.40;99.90
12446;DHT22;6287;50.984;7.022;2023-02-10T02:34:50;2.50;99.90
12446;DHT22;6287;50.984;7.022;2023-02-10T02:37:24;2.60;99.90
12446;DHT22;6287;50.984;7.022;2023-02-10T02:39:53;2.60;99.90
12446;DHT22;6287;50.984;7.022;2023-02-10T02:42:27;4.70;99.90
12446;DHT22;6287;50.984;7.022;2023-02-10T02:50:35;2.60;99.90
12446;DHT22;6287;50.984;7.022;2023-02-10T02:56:01;2.70;99.90
12446;DHT22;6287;50.984;7.022;2023-02-10T02:58:59;2.60;99.90
12446;DHT22;6287;50.984;7.022;2023-02-10T03:01:36;2.70;99.90
12446;DHT22;6287;50.984;7.022;2023-02-10T03:04:09;2.70;99.90
12446;DHT22;6287;50.984;7.022;2023-02-10T03:09:06;2.70;99.90
12446;DHT22;6287;50.984;7.022;2023-02-10T03:11:34;2.70;99.90
12446;DHT22;6287;50.984;7.022;2023-02-10T03:14:02;2.70;99.90
12446;DHT22;6287;50.984;7.022;2023-02-10T03:16:27;2.70;99.90
12446;DHT22;6287;50.984;7.022;2023-02-10T03:18:55;2.70;99.90
12446;DHT22;6287;50.984;7.022;2023-02-10T03:21:25;2.70;99.90
12446;DHT22;6287;50.984;7.022;2023-02-10T03:23:54;2.70;99.90
12446;DHT22;6287;50.984;7.022;2023-02-10T03:26:21;2.70;99.90
12446;DHT22;6287;50.984;7.022;2023-02-10T03:28:47;2.70;99.90
12446;DHT22;6287;50.984;7.022;2023-02-10T03:31:13;2.70;99.90
12446;DHT22;6287;50.984;7.022;2023-02-10T03:33:39;2.70;99.90
12446;DHT22;6287;50.984;7.022;2023-02-10T03:36:05;2.70;99.90
12446;DHT22;6287;50.984;7.022;2023-02-10T03:38:31;2.70;99.90
12446;DHT22;6287;50.984;7.022;2023-02-10T03:41:01;2.70;99.90
12446;DHT22;6287;50.984;7.022;2023-02-10T03:43:27;2.70;99.90
12446;DHT22;6287;50.984;7.022;2023-02-10T03:45:58;2.70;99.90
12446;DHT22;6287;50.984;7.022;2023-02-10T03:48:24;2.60;99.90
12446;DHT22;6287;50.984;7.022;2023-02-10T03:50:52;2.60;99.90
12446;DHT22;6287;50.984;7.022;2023-02-10T03:53:20;2.50;99.90
12446;DHT22;6287;50.984;7.022;2023-02-10T03:55:45;2.50;99.90
12446;DHT22;6287;50.984;7.022;2023-02-10T03:58:14;2.40;99.90
12446;DHT22;6287;50.984;7.022;2023-02-10T04:00:44;2.40;99.90
12446;DHT22;6287;50.984;7.022;2023-02-10T04:03:12;2.30;99.90
12446;DHT22;6287;50.984;7.022;2023-02-10T04:05:40;2.30;99.90
12446;DHT22;6287;50.984;7.022;2023-02-10T04:08:08;2.30;99.90
12446;DHT22;6287;50.984;7.022;2023-02-10T04:10:34;2.20;99.90
12446;DHT22;6287;50.984;7.022;2023-02-10T04:13:03;2.10;99.90
12446;DHT22;6287;50.984;7.022;2023-02-10T04:15:32;2.10;99.90
12446;DHT22;6287;50.984;7.022;2023-02-10T04:17:59;2.00;99.90
12446;DHT22;6287;50.984;7.022;2023-02-10T04:20:26;2.00;99.90
12446;DHT22;6287;50.984;7.022;2023-02-10T04:22:52;3.40;99.90
12446;DHT22;6287;50.984;7.022;2023-02-10T04:25:20;2.00;99.90
12446;DHT22;6287;50.984;7.022;2023-02-10T04:27:48;2.00;99.90
12446;DHT22;6287;50.984;7.022;2023-02-10T04:30:14;2.00;99.90
12446;DHT22;6287;50.984;7.022;2023-02-10T04:32:40;2.00;99.90
12446;DHT22;6287;50.984;7.022;2023-02-10T04:35:05;1.90;99.90
12446;DHT22;6287;50.984;7.022;2023-02-10T04:37:36;1.90;99.90
12446;DHT22;6287;50.984;7.022;2023-02-10T04:40:05;1.80;99.90
12446;DHT22;6287;50.984;7.022;2023-02-10T04:42:30;1.80;99.90
12446;DHT22;6287;50.984;7.022;2023-02-10T04:44:59;1.70;99.90
12446;DHT22;6287;50.984;7.022;2023-02-10T04:47:28;1.60;99.90
12446;DHT22;6287;50.984;7.022;2023-02-10T04:49:58;1.60;99.90
12446;DHT22;6287;50.984;7.022;2023-02-10T04:52:26;1.60;99.90
12446;DHT22;6287;50.984;7.022;2023-02-10T04:54:52;1.60;99.90
12446;DHT22;6287;50.984;7.022;2023-02-10T04:57:20;1.50;99.90
12446;DHT22;6287;50.984;7.022;2023-02-10T04:59:48;1.50;99.90
12446;DHT22;6287;50.984;7.022;2023-02-10T05:02:13;1.40;99.90
12446;DHT22;6287;50.984;7.022;2023-02-10T05:04:39;1.30;99.90
12446;DHT22;6287;50.984;7.022;2023-02-10T05:07:08;1.30;99.90
12446;DHT22;6287;50.984;7.022;2023-02-10T05:09:34;1.20;99.90
12446;DHT22;6287;50.984;7.022;2023-02-10T05:12:03;1.10;99.90
12446;DHT22;6287;50.984;7.022;2023-02-10T05:14:29;1.10;99.90
12446;DHT22;6287;50.984;7.022;2023-02-10T05:16:54;1.10;99.90
12446;DHT22;6287;50.984;7.022;2023-02-10T05:19:20;1.00;99.90
12446;DHT22;6287;50.984;7.022;2023-02-10T05:21:48;1.00;99.90
12446;DHT22;6287;50.984;7.022;2023-02-10T05:24:18;1.00;99.90
12446;DHT22;6287;50.984;7.022;2023-02-10T05:26:46;1.00;99.90
12446;DHT22;6287;50.984;7.022;2023-02-10T05:29:14;0.90;99.90
12446;DHT22;6287;50.984;7.022;2023-02-10T05:31:43;0.90;99.90
12446;DHT22;6287;50.984;7.022;2023-02-10T05:34:08;0.90;99.90
12446;DHT22;6287;50.984;7.022;2023-02-10T05:36:34;0.80;99.90
12446;DHT22;6287;50.984;7.022;2023-02-10T05:39:02;0.80;99.90
12446;DHT22;6287;50.984;7.022;2023-02-10T05:41:49;0.80;99.90
12446;DHT22;6287;50.984;7.022;2023-02-10T05:44:17;0.80;99.90
12446;DHT22;6287;50.984;7.022;2023-02-10T05:46:47;0.70;99.90
12446;DHT22;6287;50.984;7.022;2023-02-10T05:49:15;0.60;99.90
12446;DHT22;6287;50.984;7.022;2023-02-10T05:51:42;0.60;99.90
12446;DHT22;6287;50.984;7.022;2023-02-10T05:54:10;0.50;99.90
12446;DHT22;6287;50.984;7.022;2023-02-10T05:56:36;0.50;99.90
12446;DHT22;6287;50.984;7.022;2023-02-10T05:59:07;0.50;99.90
12446;DHT22;6287;50.984;7.022;2023-02-10T06:01:35;0.50;99.90
12446;DHT22;6287;50.984;7.022;2023-02-10T06:04:00;0.50;99.90
12446;DHT22;6287;50.984;7.022;2023-02-10T06:06:26;0.40;99.90
12446;DHT22;6287;50.984;7.022;2023-02-10T06:08:54;0.40;99.90
12446;DHT22;6287;50.984;7.022;2023-02-10T06:11:20;0.40;99.90
12446;DHT22;6287;50.984;7.022;2023-02-10T06:13:48;0.40;99.90
12446;DHT22;6287;50.984;7.022;2023-02-10T06:16:16;0.30;99.90
12446;DHT22;6287;50.984;7.022;2023-02-10T06:18:46;0.30;99.90
12446;DHT22;6287;50.984;7.022;2023-02-10T06:21:16;0.30;99.90
12446;DHT22;6287;50.984;7.022;2023-02-10T06:23:44;0.20;99.90
12446;DHT22;6287;50.984;7.022;2023-02-10T06:26:10;0.20;99.90
12446;DHT22;6287;50.984;7.022;2023-02-10T06:28:36;0.20;99.90
12446;DHT22;6287;50.984;7.022;2023-02-10T06:31:02;0.20;99.90
12446;DHT22;6287;50.984;7.022;2023-02-10T06:33:30;0.10;99.90
12446;DHT22;6287;50.984;7.022;2023-02-10T06:35:58;0.10;99.90
12446;DHT22;6287;50.984;7.022;2023-02-10T06:38:23;0.10;99.90
12446;DHT22;6287;50.984;7.022;2023-02-10T06:40:54;0.10;99.90
12446;DHT22;6287;50.984;7.022;2023-02-10T06:43:19;0.10;99.90
12446;DHT22;6287;50.984;7.022;2023-02-10T06:45:45;0.10;99.90
12446;DHT22;6287;50.984;7.022;2023-02-10T06:48:15;0.20;99.90
12446;DHT22;6287;50.984;7.022;2023-02-10T06:50:43;0.10;99.90
12446;DHT22;6287;50.984;7.022;2023-02-10T06:53:08;0.00;99.90
12446;DHT22;6287;50.984;7.022;2023-02-10T06:55:36;0.00;99.90
12446;DHT22;6287;50.984;7.022;2023-02-10T06:58:07;0.00;99.90
12446;DHT22;6287;50.984;7.022;2023-02-10T07:00:32;0.00;99.90
12446;DHT22;6287;50.984;7.022;2023-02-10T07:02:58;0.00;99.90
12446;DHT22;6287;50.984;7.022;2023-02-10T07:05:23;0.00;99.90
12446;DHT22;6287;50.984;7.022;2023-02-10T07:07:54;0.00;99.90
12446;DHT22;6287;50.984;7.022;2023-02-10T07:10:20;0.10;99.90
12446;DHT22;6287;50.984;7.022;2023-02-10T07:12:46;0.10;99.90
12446;DHT22;6287;50.984;7.022;2023-02-10T07:15:17;0.10;99.90
12446;DHT22;6287;50.984;7.022;2023-02-10T07:17:52;0.20;99.90
12446;DHT22;6287;50.984;7.022;2023-02-10T07:20:18;0.20;99.90
12446;DHT22;6287;50.984;7.022;2023-02-10T07:22:44;0.20;99.90
12446;DHT22;6287;50.984;7.022;2023-02-10T07:25:12;0.20;99.90
12446;DHT22;6287;50.984;7.022;2023-02-10T07:27:38;0.20;99.90
12446;DHT22;6287;50.984;7.022;2023-02-10T07:30:06;0.20;99.90
12446;DHT22;6287;50.984;7.022;2023-02-10T07:32:34;0.30;99.90
12446;DHT22;6287;50.984;7.022;2023-02-10T07:35:05;0.30;99.90
12446;DHT22;6287;50.984;7.022;2023-02-10T07:37:33;0.40;99.90
12446;DHT22;6287;50.984;7.022;2023-02-10T07:40:02;0.50;99.90
12446;DHT22;6287;50.984;7.022;2023-02-10T07:42:30;0.60;99.90
12446;DHT22;6287;50.984;7.022;2023-02-10T07:44:57;0.70;99.90
12446;DHT22;6287;50.984;7.022;2023-02-10T07:47:23;0.80;99.90
12446;DHT22;6287;50.984;7.022;2023-02-10T07:49:48;0.80;99.90
12446;DHT22;6287;50.984;7.022;2023-02-10T07:52:19;0.80;99.90
12446;DHT22;6287;50.984;7.022;2023-02-10T07:54:45;0.90;99.90
12446;DHT22;6287;50.984;7.022;2023-02-10T07:57:13;0.90;99.90
12446;DHT22;6287;50.984;7.022;2023-02-10T07:59:39;0.90;99.90
12446;DHT22;6287;50.984;7.022;2023-02-10T08:02:05;1.00;99.90
12446;DHT22;6287;50.984;7.022;2023-02-10T08:04:33;1.00;99.90
12446;DHT22;6287;50.984;7.022;2023-02-10T08:06:58;1.10;99.90
12446;DHT22;6287;50.984;7.022;2023-02-10T08:09:26;1.20;99.90
12446;DHT22;6287;50.984;7.022;2023-02-10T08:11:54;1.20;99.90
12446;DHT22;6287;50.984;7.022;2023-02-10T08:14:20;1.30;99.90
12446;DHT22;6287;50.984;7.022;2023-02-10T08:16:46;1.30;99.90
12446;DHT22;6287;50.984;7.022;2023-02-10T08:21:40;1.40;99.90
12446;DHT22;6287;50.984;7.022;2023-02-10T08:24:07;1.40;99.90
12446;DHT22;6287;50.984;7.022;2023-02-10T08:26:33;1.50;99.90
12446;DHT22;6287;50.984;7.022;2023-02-10T08:29:02;1.60;99.90
12446;DHT22;6287;50.984;7.022;2023-02-10T08:31:28;1.60;99.90
12446;DHT22;6287;50.984;7.022;2023-02-10T08:33:55;1.60;99.90
12446;DHT22;6287;50.984;7.022;2023-02-10T08:36:23;1.70;99.90
12446;DHT22;6287;50.984;7.022;2023-02-10T08:38:57;1.70;99.90
12446;DHT22;6287;50.984;7.022;2023-02-10T08:41:23;1.80;99.90
12446;DHT22;6287;50.984;7.022;2023-02-10T08:43:52;1.90;99.90
12446;DHT22;6287;50.984;7.022;2023-02-10T08:46:22;2.10;99.90
12446;DHT22;6287;50.984;7.022;2023-02-10T08:48:50;2.20;99.90
12446;DHT22;6287;50.984;7.022;2023-02-10T08:51:16;2.30;99.90
12446;DHT22;6287;50.984;7.022;2023-02-10T08:53:44;2.40;99.90
12446;DHT22;6287;50.984;7.022;2023-02-10T08:56:16;2.60;99.90
12446;DHT22;6287;50.984;7.022;2023-02-10T08:58:43;2.70;99.90
12446;DHT22;6287;50.984;7.022;2023-02-10T09:01:14;2.80;99.90
12446;DHT22;6287;50.984;7.022;2023-02-10T09:03:42;2.90;99.90
12446;DHT22;6287;50.984;7.022;2023-02-10T09:06:37;3.00;99.90
12446;DHT22;6287;50.984;7.022;2023-02-10T09:09:19;3.10;99.90
12446;DHT22;6287;50.984;7.022;2023-02-10T09:11:48;3.20;99.90
12446;DHT22;6287;50.984;7.022;2023-02-10T09:14:14;3.20;99.90
12446;DHT22;6287;50.984;7.022;2023-02-10T09:16:42;3.20;99.90
12446;DHT22;6287;50.984;7.022;2023-02-10T09:19:10;3.30;99.90
12446;DHT22;6287;50.984;7.022;2023-02-10T09:21:38;3.30;99.90
12446;DHT22;6287;50.984;7.022;2023-02-10T09:24:06;3.40;99.90
12446;DHT22;6287;50.984;7.022;2023-02-10T09:26:32;3.40;99.90
12446;DHT22;6287;50.984;7.022;2023-02-10T09:28:57;3.40;99.90
12446;DHT22;6287;50.984;7.022;2023-02-10T09:31:23;3.50;99.90
12446;DHT22;6287;50.984;7.022;2023-02-10T09:33:49;3.50;99.90
12446;DHT22;6287;50.984;7.022;2023-02-10T09:36:17;3.50;99.90
12446;DHT22;6287;50.984;7.022;2023-02-10T09:38:43;3.60;99.90
12446;DHT22;6287;50.984;7.022;2023-02-10T09:41:41;3.60;99.90
12446;DHT22;6287;50.984;7.022;2023-02-10T09:44:28;3.80;99.90
12446;DHT22;6287;50.984;7.022;2023-02-10T09:47:33;3.80;99.90
12446;DHT22;6287;50.984;7.022;2023-02-10T09:55:45;4.00;99.90
12446;DHT22;6287;50.984;7.022;2023-02-10T10:00:59;4.10;99.90
12446;DHT22;6287;50.984;7.022;2023-02-10T10:03:42;4.20;99.90
12446;DHT22;6287;50.984;7.022;2023-02-10T10:06:23;4.30;99.90
12446;DHT22;6287;50.984;7.022;2023-02-10T10:12:04;4.50;99.90
12446;DHT22;6287;50.984;7.022;2023-02-10T10:25:47;5.50;99.90
12446;DHT22;6287;50.984;7.022;2023-02-10T10:31:14;5.90;99.90
12446;DHT22;6287;50.984;7.022;2023-02-10T10:36:35;6.30;99.90
12446;DHT22;6287;50.984;7.022;2023-02-10T10:39:28;6.50;99.90
12446;DHT22;6287;50.984;7.022;2023-02-10T10:41:57;6.60;99.90
12446;DHT22;6287;50.984;7.022;2023-02-10T10:44:30;6.70;99.90
12446;DHT22;6287;50.984;7.022;2023-02-10T10:54:45;7.30;99.90
12446;DHT22;6287;50.984;7.022;2023-02-10T10:57:13;7.40;99.90
12446;DHT22;6287;50.984;7.022;2023-02-10T11:00:02;7.60;99.90
12446;DHT22;6287;50.984;7.022;2023-02-10T11:02:31;8.00;99.90
12446;DHT22;6287;50.984;7.022;2023-02-10T11:05:04;8.40;99.90
12446;DHT22;6287;50.984;7.022;2023-02-10T11:07:33;8.40;99.90
12446;DHT22;6287;50.984;7.022;2023-02-10T11:10:00;8.60;99.90
12446;DHT22;6287;50.984;7.022;2023-02-10T11:12:33;8.60;99.90
12446;DHT22;6287;50.984;7.022;2023-02-10T11:15:00;8.80;99.90
12446;DHT22;6287;50.984;7.022;2023-02-10T11:22:36;9.00;99.90
12446;DHT22;6287;50.984;7.022;2023-02-10T11:25:27;9.10;99.90
12446;DHT22;6287;50.984;7.022;2023-02-10T11:27:58;9.20;99.90
12446;DHT22;6287;50.984;7.022;2023-02-10T11:32:53;9.30;99.90
12446;DHT22;6287;50.984;7.022;2023-02-10T11:35:19;9.30;99.90
12446;DHT22;6287;50.984;7.022;2023-02-10T11:37:52;9.30;99.90
12446;DHT22;6287;50.984;7.022;2023-02-10T11:40:23;9.20;99.90
12446;DHT22;6287;50.984;7.022;2023-02-10T11:42:54;8.80;99.90
12446;DHT22;6287;50.984;7.022;2023-02-10T11:45:24;8.80;99.90
12446;DHT22;6287;50.984;7.022;2023-02-10T11:48:17;8.70;99.90
12446;DHT22;6287;50.984;7.022;2023-02-10T11:50:43;8.60;99.90
12446;DHT22;6287;50.984;7.022;2023-02-10T11:53:29;8.60;99.90
12446;DHT22;6287;50.984;7.022;2023-02-10T11:56:22;8.60;99.90
12446;DHT22;6287;50.984;7.022;2023-02-10T12:01:58;8.80;99.90
12446;DHT22;6287;50.984;7.022;2023-02-10T12:09:44;8.80;99.90
12446;DHT22;6287;50.984;7.022;2023-02-10T12:15:23;8.80;99.90
12446;DHT22;6287;50.984;7.022;2023-02-10T12:31:45;8.50;99.90
12446;DHT22;6287;50.984;7.022;2023-02-10T12:34:38;8.50;99.90
12446;DHT22;6287;50.984;7.022;2023-02-10T12:43:17;8.90;99.90
12446;DHT22;6287;50.984;7.022;2023-02-10T12:48:27;9.10;99.90
12446;DHT22;6287;50.984;7.022;2023-02-10T12:54:06;9.20;99.90
12446;DHT22;6287;50.984;7.022;2023-02-10T12:56:41;9.20;99.90
12446;DHT22;6287;50.984;7.022;2023-02-10T12:59:15;9.30;99.90
12446;DHT22;6287;50.984;7.022;2023-02-10T13:01:46;9.50;99.90
12446;DHT22;6287;50.984;7.022;2023-02-10T13:04:31;9.70;99.90
12446;DHT22;6287;50.984;7.022;2023-02-10T13:07:17;9.60;99.90
12446;DHT22;6287;50.984;7.022;2023-02-10T13:09:51;9.60;99.90
12446;DHT22;6287;50.984;7.022;2023-02-10T13:15:02;9.90;99.90
12446;DHT22;6287;50.984;7.022;2023-02-10T13:17:41;10.10;99.90
12446;DHT22;6287;50.984;7.022;2023-02-10T13:29:31;10.60;97.80
12446;DHT22;6287;50.984;7.022;2023-02-10T13:32:07;10.70;98.10
12446;DHT22;6287;50.984;7.022;2023-02-10T13:34:43;10.80;98.00
12446;DHT22;6287;50.984;7.022;2023-02-10T13:37:26;10.80;97.80
12446;DHT22;6287;50.984;7.022;2023-02-10T13:39:59;11.00;98.20
12446;DHT22;6287;50.984;7.022;2023-02-10T13:42:37;11.30;97.60
12446;DHT22;6287;50.984;7.022;2023-02-10T13:48:00;11.10;96.50
12446;DHT22;6287;50.984;7.022;2023-02-10T13:53:04;10.70;97.30
12446;DHT22;6287;50.984;7.022;2023-02-10T13:55:49;10.50;97.70
12446;DHT22;6287;50.984;7.022;2023-02-10T13:58:27;10.40;97.80
12446;DHT22;6287;50.984;7.022;2023-02-10T14:00:55;10.30;98.10
12446;DHT22;6287;50.984;7.022;2023-02-10T14:06:08;10.40;98.60
12446;DHT22;6287;50.984;7.022;2023-02-10T14:08:39;10.30;98.20
12446;DHT22;6287;50.984;7.022;2023-02-10T14:14:03;10.40;98.90
12446;DHT22;6287;50.984;7.022;2023-02-10T14:16:38;10.30;98.80
12446;DHT22;6287;50.984;7.022;2023-02-10T14:19:19;10.30;98.80
12446;DHT22;6287;50.984;7.022;2023-02-10T14:21:48;10.20;98.80
12446;DHT22;6287;50.984;7.022;2023-02-10T14:24:18;10.10;98.80
12446;DHT22;6287;50.984;7.022;2023-02-10T14:26:51;9.90;99.30
12446;DHT22;6287;50.984;7.022;2023-02-10T14:29:19;9.80;99.80
12446;DHT22;6287;50.984;7.022;2023-02-10T14:31:49;9.80;99.50
12446;DHT22;6287;50.984;7.022;2023-02-10T14:39:28;9.90;99.60
12446;DHT22;6287;50.984;7.022;2023-02-10T14:42:00;10.00;98.30
12446;DHT22;6287;50.984;7.022;2023-02-10T14:47:06;10.00;98.20
12446;DHT22;6287;50.984;7.022;2023-02-10T14:49:47;10.00;98.80
12446;DHT22;6287;50.984;7.022;2023-02-10T14:52:29;10.00;98.50
12446;DHT22;6287;50.984;7.022;2023-02-10T14:54:55;10.10;98.60
12446;DHT22;6287;50.984;7.022;2023-02-10T14:57:24;10.10;98.40
12446;DHT22;6287;50.984;7.022;2023-02-10T14:59:57;10.20;98.50
12446;DHT22;6287;50.984;7.022;2023-02-10T15:02:28;10.10;98.90
12446;DHT22;6287;50.984;7.022;2023-02-10T15:04:59;10.10;99.10
12446;DHT22;6287;50.984;7.022;2023-02-10T15:07:30;10.10;99.00
12446;DHT22;6287;50.984;7.022;2023-02-10T15:10:02;10.00;98.80
12446;DHT22;6287;50.984;7.022;2023-02-10T15:12:31;9.90;98.90
12446;DHT22;6287;50.984;7.022;2023-02-10T15:17:42;9.60;99.50
12446;DHT22;6287;50.984;7.022;2023-02-10T15:23:14;9.40;99.90
12446;DHT22;6287;50.984;7.022;2023-02-10T15:25:43;9.30;99.90
12446;DHT22;6287;50.984;7.022;2023-02-10T15:30:55;9.20;99.90
12446;DHT22;6287;50.984;7.022;2023-02-10T15:33:25;9.10;99.90
12446;DHT22;6287;50.984;7.022;2023-02-10T15:35:57;9.10;99.90
12446;DHT22;6287;50.984;7.022;2023-02-10T15:38:24;9.00;99.90
12446;DHT22;6287;50.984;7.022;2023-02-10T15:40:54;9.00;99.90
12446;DHT22;6287;50.984;7.022;2023-02-10T15:43:24;9.00;99.90
12446;DHT22;6287;50.984;7.022;2023-02-10T15:45:51;9.00;99.90
12446;DHT22;6287;50.984;7.022;2023-02-10T15:48:21;8.90;99.90
12446;DHT22;6287;50.984;7.022;2023-02-10T15:50:48;8.90;99.90
12446;DHT22;6287;50.984;7.022;2023-02-10T15:53:19;8.80;99.90
12446;DHT22;6287;50.984;7.022;2023-02-10T15:55:48;8.70;99.90
12446;DHT22;6287;50.984;7.022;2023-02-10T15:58:17;8.70;99.90
12446;DHT22;6287;50.984;7.022;2023-02-10T16:00:43;8.60;99.90
12446;DHT22;6287;50.984;7.022;2023-02-10T16:03:11;8.60;99.90
12446;DHT22;6287;50.984;7.022;2023-02-10T16:05:38;8.60;99.90
12446;DHT22;6287;50.984;7.022;2023-02-10T16:08:13;8.60;99.90
12446;DHT22;6287;50.984;7.022;2023-02-10T16:10:42;8.50;99.90
12446;DHT22;6287;50.984;7.022;2023-02-10T16:13:13;8.50;99.90
12446;DHT22;6287;50.984;7.022;2023-02-10T16:15:42;8.40;99.90
12446;DHT22;6287;50.984;7.022;2023-02-10T16:18:15;8.40;99.90
12446;DHT22;6287;50.984;7.022;2023-02-10T16:20:52;8.30;99.90
12446;DHT22;6287;50.984;7.022;2023-02-10T16:23:26;8.30;99.90
12446;DHT22;6287;50.984;7.022;2023-02-10T16:25:53;8.20;99.90
12446;DHT22;6287;50.984;7.022;2023-02-10T16:28:19;8.20;99.90
12446;DHT22;6287;50.984;7.022;2023-02-10T16:30:45;8.10;99.90
12446;DHT22;6287;50.984;7.022;2023-02-10T16:33:11;8.10;99.90
12446;DHT22;6287;50.984;7.022;2023-02-10T16:35:38;7.90;99.90
12446;DHT22;6287;50.984;7.022;2023-02-10T16:38:04;7.90;99.90
12446;DHT22;6287;50.984;7.022;2023-02-10T16:40:37;7.70;99.90
12446;DHT22;6287;50.984;7.022;2023-02-10T16:43:05;7.70;99.90
12446;DHT22;6287;50.984;7.022;2023-02-10T16:45:35;7.60;99.90
12446;DHT22;6287;50.984;7.022;2023-02-10T16:48:04;7.50;99.90
12446;DHT22;6287;50.984;7.022;2023-02-10T16:50:35;7.40;99.90
12446;DHT22;6287;50.984;7.022;2023-02-10T16:53:06;7.30;99.90
12446;DHT22;6287;50.984;7.022;2023-02-10T16:55:35;7.30;99.90
12446;DHT22;6287;50.984;7.022;2023-02-10T16:58:01;7.20;99.90
12446;DHT22;6287;50.984;7.022;2023-02-10T17:00:27;7.20;99.90
12446;DHT22;6287;50.984;7.022;2023-02-10T17:02:53;7.10;99.90
12446;DHT22;6287;50.984;7.022;2023-02-10T17:05:21;7.10;99.90
12446;DHT22;6287;50.984;7.022;2023-02-10T17:10:21;7.00;99.90
12446;DHT22;6287;50.984;7.022;2023-02-10T17:12:49;6.90;99.90
12446;DHT22;6287;50.984;7.022;2023-02-10T17:15:20;6.90;99.90
12446;DHT22;6287;50.984;7.022;2023-02-10T17:17:49;6.80;99.90
12446;DHT22;6287;50.984;7.022;2023-02-10T17:20:37;6.70;99.90
12446;DHT22;6287;50.984;7.022;2023-02-10T17:23:05;6.50;99.90
12446;DHT22;6287;50.984;7.022;2023-02-10T17:25:32;6.50;99.90
12446;DHT22;6287;50.984;7.022;2023-02-10T17:28:00;6.50;99.90
12446;DHT22;6287;50.984;7.022;2023-02-10T17:30:26;6.40;99.90
12446;DHT22;6287;50.984;7.022;2023-02-10T17:32:53;6.30;99.90
12446;DHT22;6287;50.984;7.022;2023-02-10T17:35:24;6.30;99.90
12446;DHT22;6287;50.984;7.022;2023-02-10T17:37:57;6.30;99.90
12446;DHT22;6287;50.984;7.022;2023-02-10T17:40:43;6.20;99.90
12446;DHT22;6287;50.984;7.022;2023-02-10T17:43:08;6.10;99.90
12446;DHT22;6287;50.984;7.022;2023-02-10T17:45:37;6.10;99.90
12446;DHT22;6287;50.984;7.022;2023-02-10T17:48:02;5.90;99.90
12446;DHT22;6287;50.984;7.022;2023-02-10T17:53:00;5.80;99.90
12446;DHT22;6287;50.984;7.022;2023-02-10T17:55:27;5.70;99.90
12446;DHT22;6287;50.984;7.022;2023-02-10T17:57:55;5.60;99.90
12446;DHT22;6287;50.984;7.022;2023-02-10T18:00:21;5.60;99.90
12446;DHT22;6287;50.984;7.022;2023-02-10T18:02:49;5.50;99.90
12446;DHT22;6287;50.984;7.022;2023-02-10T18:05:15;5.40;99.90
12446;DHT22;6287;50.984;7.022;2023-02-10T18:07:40;5.40;99.90
12446;DHT22;6287;50.984;7.022;2023-02-10T18:10:11;5.40;99.90
12446;DHT22;6287;50.984;7.022;2023-02-10T18:12:36;5.30;99.90
12446;DHT22;6287;50.984;7.022;2023-02-10T18:15:02;5.30;99.90
12446;DHT22;6287;50.984;7.022;2023-02-10T18:17:32;5.20;99.90
12446;DHT22;6287;50.984;7.022;2023-02-10T18:20:01;5.20;99.90
12446;DHT22;6287;50.984;7.022;2023-02-10T18:22:26;5.20;99.90
12446;DHT22;6287;50.984;7.022;2023-02-10T18:24:54;5.20;99.90
12446;DHT22;6287;50.984;7.022;2023-02-10T18:29:51;5.20;99.90
12446;DHT22;6287;50.984;7.022;2023-02-10T18:32:17;5.20;99.90
12446;DHT22;6287;50.984;7.022;2023-02-10T18:34:43;8.80;99.90
12446;DHT22;6287;50.984;7.022;2023-02-10T18:37:09;5.20;99.90
12446;DHT22;6287;50.984;7.022;2023-02-10T18:39:38;5.30;99.90
12446;DHT22;6287;50.984;7.022;2023-02-10T18:42:07;5.40;99.90
12446;DHT22;6287;50.984;7.022;2023-02-10T18:44:36;5.50;99.90
12446;DHT22;6287;50.984;7.022;2023-02-10T18:49:34;5.70;99.90
12446;DHT22;6287;50.984;7.022;2023-02-10T18:52:00;5.80;99.90
12446;DHT22;6287;50.984;7.022;2023-02-10T18:54:27;5.90;99.90
12446;DHT22;6287;50.984;7.022;2023-02-10T18:56:53;6.00;99.90
12446;DHT22;6287;50.984;7.022;2023-02-10T18:59:19;6.10;99.90
12446;DHT22;6287;50.984;7.022;2023-02-10T19:01:49;7.10;99.90